Time;durP1;ratioP1;P1;durP2;ratioP2;P2;SDS_P1;SDS_P2;PMS_P1;PMS_P2;Temp;Humidity;BMP_temperature;BMP_pressure;BME280_temperature;BME280_humidity;BME280_pressure;Samples;Min_cycle;Max_cycle;Signal;HPM_P1;HPM_P2
2023/12/17 00:00:11;;;;;;;7.40;6.70;;;11.00;99.90;;;;;;5072877;28;20442;-60
2023/12/17 00:02:37;;;;;;;6.77;6.17;;;10.90;99.90;;;;;;5075850;28;20415;-58
2023/12/17 00:05:03;;;;;;;7.80;7.00;;;11.00;99.90;;;;;;5089839;28;20459;-58
2023/12/17 00:07:29;;;;;;;7.10;6.60;;;10.90;99.90;;;;;;5071201;28;21010;-58
2023/12/17 00:09:55;;;;;;;7.67;6.97;;;11.00;99.90;;;;;;5072200;28;20423;-58
2023/12/17 00:12:20;;;;;;;7.20;6.50;;;11.00;99.90;;;;;;5085487;28;20214;-58
2023/12/17 00:14:46;;;;;;;6.67;6.13;;;11.10;99.90;;;;;;5075506;28;20653;-57
2023/12/17 00:17:12;;;;;;;6.80;6.10;;;11.10;99.90;;;;;;5073852;28;20690;-59
2023/12/17 00:19:38;;;;;;;7.10;6.50;;;11.20;99.90;;;;;;5091376;28;20516;-57
2023/12/17 00:22:04;;;;;;;7.17;6.50;;;11.20;99.90;;;;;;5090854;28;20812;-57
2023/12/17 00:24:29;;;;;;;7.80;7.10;;;11.20;99.90;;;;;;5080805;28;20208;-57
2023/12/17 00:26:57;;;;;;;7.80;7.20;;;11.20;99.90;;;;;;5071968;28;20179;-58
2023/12/17 00:29:23;;;;;;;8.07;7.40;;;11.20;99.90;;;;;;5071359;28;20197;-58
2023/12/17 00:31:49;;;;;;;7.00;6.50;;;11.30;99.90;;;;;;5071916;28;20409;-57
2023/12/17 00:34:15;;;;;;;7.67;6.97;;;11.30;99.90;;;;;;5086766;28;20500;-59
2023/12/17 00:36:40;;;;;;;6.90;6.30;;;11.40;99.90;;;;;;5071902;28;20172;-57
2023/12/17 00:39:07;;;;;;;7.10;6.50;;;11.40;99.90;;;;;;5079934;28;20660;-57
2023/12/17 00:41:33;;;;;;;7.43;6.73;;;11.40;99.90;;;;;;5091301;28;20168;-57
2023/12/17 00:43:59;;;;;;;8.83;7.10;;;11.40;99.90;;;;;;5073698;28;20460;-58
2023/12/17 00:46:25;;;;;;;7.90;7.20;;;11.40;99.90;;;;;;5090971;28;20752;-58
2023/12/17 00:48:51;;;;;;;8.27;7.47;;;11.50;99.90;;;;;;5123445;28;20511;-57
2023/12/17 00:51:18;;;;;;;7.50;7.00;;;11.30;99.90;;;;;;5095564;28;20179;-58
2023/12/17 00:53:44;;;;;;;8.33;7.63;;;11.30;99.90;;;;;;5091806;28;20208;-57
2023/12/17 00:56:10;;;;;;;8.57;7.87;;;11.30;99.90;;;;;;5091995;28;20442;-57
2023/12/17 00:58:36;;;;;;;7.47;6.93;;;11.30;99.90;;;;;;5091116;28;20166;-57
2023/12/17 01:01:01;;;;;;;8.77;7.97;;;11.30;99.90;;;;;;5078384;28;20446;-58
2023/12/17 01:03:28;;;;;;;8.33;7.63;;;11.30;99.90;;;;;;5085784;28;20411;-58
2023/12/17 01:05:53;;;;;;;9.60;7.30;;;11.30;99.90;;;;;;5090988;28;20220;-57
2023/12/17 01:08:19;;;;;;;8.50;7.77;;;11.20;99.90;;;;;;5082765;28;20472;-58
2023/12/17 01:10:45;;;;;;;9.00;8.10;;;11.20;99.90;;;;;;5095705;28;20177;-58
2023/12/17 01:13:11;;;;;;;8.90;8.00;;;11.20;99.90;;;;;;5087180;28;20545;-57
2023/12/17 01:15:37;;;;;;;8.63;7.93;;;11.30;99.90;;;;;;5093257;28;20461;-57
2023/12/17 01:18:03;;;;;;;9.50;7.80;;;11.30;99.90;;;;;;5091329;28;20406;-58
2023/12/17 01:20:28;;;;;;;8.80;8.00;;;11.30;99.90;;;;;;5087627;28;20234;-58
2023/12/17 01:22:54;;;;;;;9.13;8.30;;;11.30;99.90;;;;;;5074820;28;20743;-57
2023/12/17 01:25:20;;;;;;;8.77;8.07;;;11.30;99.90;;;;;;5073473;28;20212;-58
2023/12/17 01:27:45;;;;;;;8.53;7.73;;;11.40;99.90;;;;;;5074995;28;20181;-57
2023/12/17 01:30:11;;;;;;;9.27;8.40;;;11.40;99.90;;;;;;5096492;28;20265;-58
2023/12/17 01:32:37;;;;;;;8.73;8.00;;;11.50;99.90;;;;;;5074079;28;20168;-58
2023/12/17 01:35:05;;;;;;;8.43;7.63;;;11.50;99.90;;;;;;5074877;28;20444;-58
2023/12/17 01:37:31;;;;;;;8.70;8.00;;;11.50;99.90;;;;;;5092450;28;20699;-58
2023/12/17 01:39:57;;;;;;;8.43;7.73;;;11.60;99.90;;;;;;5092556;28;20500;-58
2023/12/17 01:42:22;;;;;;;9.70;8.70;;;11.60;99.90;;;;;;5094203;28;20223;-58
2023/12/17 01:44:48;;;;;;;7.87;7.27;;;11.70;99.90;;;;;;5094474;28;20652;-58
2023/12/17 01:47:14;;;;;;;9.43;8.53;;;11.70;99.90;;;;;;5094112;28;20180;-58
2023/12/17 01:49:41;;;;;;;8.80;7.90;;;11.70;99.90;;;;;;5103191;28;20223;-58
2023/12/17 01:52:07;;;;;;;8.93;8.10;;;11.60;99.90;;;;;;5094116;28;20849;-58
2023/12/17 01:54:34;;;;;;;8.70;7.80;;;11.60;99.90;;;;;;5093342;28;20505;-58
2023/12/17 01:57:00;;;;;;;9.60;8.73;;;11.60;99.90;;;;;;5085755;28;20498;-58
2023/12/17 01:59:27;;;;;;;9.13;8.20;;;11.60;99.90;;;;;;5072542;28;20998;-58
2023/12/17 02:01:53;;;;;;;11.80;8.27;;;11.50;99.90;;;;;;5075713;28;20171;-58
2023/12/17 02:04:22;;;;;;;9.07;8.27;;;11.50;99.90;;;;;;5073693;28;20547;-59
2023/12/17 02:06:47;;;;;;;8.53;7.87;;;11.50;99.90;;;;;;5074519;28;20430;-58
2023/12/17 02:09:13;;;;;;;9.23;8.43;;;11.50;99.90;;;;;;5073568;28;20412;-58
2023/12/17 02:11:39;;;;;;;8.57;7.87;;;11.60;99.90;;;;;;5087719;28;20489;-58
2023/12/17 02:14:05;;;;;;;8.93;8.10;;;11.60;99.90;;;;;;5091445;28;20596;-57
2023/12/17 02:16:30;;;;;;;8.37;7.57;;;11.60;99.90;;;;;;5092531;28;20179;-58
2023/12/17 02:19:01;;;;;;;8.63;7.87;;;11.70;99.90;;;;;;5077215;28;20525;-58
2023/12/17 02:21:27;;;;;;;8.33;7.53;;;11.70;99.90;;;;;;5094861;28;20180;-58
2023/12/17 02:23:54;;;;;;;8.23;7.43;;;11.70;99.90;;;;;;5104445;28;20425;-58
2023/12/17 02:26:19;;;;;;;8.77;7.97;;;11.70;99.90;;;;;;5114102;28;20178;-60
2023/12/17 02:28:47;;;;;;;9.07;8.17;;;11.70;99.90;;;;;;5093153;28;20415;-58
2023/12/17 02:31:13;;;;;;;8.57;7.87;;;11.70;99.90;;;;;;5084067;28;20814;-58
2023/12/17 02:33:39;;;;;;;8.80;7.87;;;11.70;99.90;;;;;;5092786;28;20707;-58
2023/12/17 02:36:05;;;;;;;7.70;7.10;;;11.70;99.90;;;;;;5093568;28;20940;-58
2023/12/17 02:38:31;;;;;;;9.17;8.23;;;11.70;99.90;;;;;;5091417;28;20655;-58
2023/12/17 02:40:56;;;;;;;7.93;7.30;;;11.70;99.90;;;;;;5093839;28;20437;-58
2023/12/17 02:43:22;;;;;;;8.87;8.17;;;11.70;99.90;;;;;;5083019;28;20237;-60
2023/12/17 02:45:48;;;;;;;9.07;8.37;;;11.60;99.90;;;;;;5074669;28;20258;-58
2023/12/17 02:48:14;;;;;;;8.77;7.97;;;11.50;99.90;;;;;;5126613;27;20228;-58
2023/12/17 02:50:40;;;;;;;8.43;7.83;;;11.70;99.90;;;;;;5098292;28;20195;-58
2023/12/17 02:53:06;;;;;;;8.30;7.60;;;11.70;99.90;;;;;;5091705;28;20436;-60
2023/12/17 02:55:32;;;;;;;8.57;7.77;;;11.70;99.90;;;;;;5124846;27;20429;-60
2023/12/17 02:57:58;;;;;;;8.93;8.23;;;11.70;99.90;;;;;;5092364;28;20447;-60
2023/12/17 03:00:24;;;;;;;8.30;7.60;;;11.70;99.90;;;;;;5125564;27;20797;-61
2023/12/17 03:02:50;;;;;;;8.47;7.77;;;11.80;99.90;;;;;;5091648;28;20446;-60
2023/12/17 03:05:16;;;;;;;7.80;7.17;;;11.70;99.90;;;;;;5093731;28;21033;-60
2023/12/17 03:07:42;;;;;;;8.70;8.10;;;11.70;99.90;;;;;;5071052;28;20404;-61
2023/12/17 03:10:09;;;;;;;8.50;7.80;;;11.80;99.90;;;;;;5073233;28;20218;-60
2023/12/17 03:12:35;;;;;;;7.57;7.03;;;11.80;99.90;;;;;;5067269;28;20510;-60
2023/12/17 03:15:01;;;;;;;9.30;8.40;;;11.80;99.90;;;;;;5092133;28;20592;-59
2023/12/17 03:17:27;;;;;;;8.93;8.03;;;11.80;99.90;;;;;;5093640;28;20428;-61
2023/12/17 03:19:53;;;;;;;8.17;7.57;;;11.70;99.90;;;;;;5090944;28;20416;-58
2023/12/17 03:22:19;;;;;;;9.40;8.57;;;12.00;99.90;;;;;;5086466;28;20189;-58
2023/12/17 03:24:45;;;;;;;8.87;8.17;;;11.80;99.90;;;;;;5078250;28;20462;-58
2023/12/17 03:27:11;;;;;;;9.10;8.30;;;11.60;99.90;;;;;;5092119;28;20544;-58
2023/12/17 03:29:36;;;;;;;9.40;8.50;;;11.80;99.90;;;;;;5092228;28;20576;-58
2023/12/17 03:32:02;;;;;;;8.70;8.00;;;11.80;99.90;;;;;;5092520;28;20183;-58
2023/12/17 03:34:28;;;;;;;8.77;8.07;;;11.80;99.90;;;;;;5083313;28;20537;-59
2023/12/17 03:36:54;;;;;;;9.33;8.50;;;11.80;99.90;;;;;;5091544;28;20760;-58
2023/12/17 03:39:20;;;;;;;9.70;8.80;;;11.80;99.90;;;;;;5079864;28;20181;-58
2023/12/17 03:41:45;;;;;;;9.37;8.47;;;11.80;99.90;;;;;;5091095;28;20929;-58
2023/12/17 03:44:11;;;;;;;8.60;7.90;;;11.80;99.90;;;;;;5072728;28;20244;-58
2023/12/17 03:46:37;;;;;;;9.20;8.40;;;11.70;99.90;;;;;;5087575;28;20628;-58
2023/12/17 03:49:02;;;;;;;9.20;8.40;;;11.80;99.90;;;;;;5091087;28;20198;-58
2023/12/17 03:51:28;;;;;;;8.80;8.00;;;11.80;99.90;;;;;;5073281;28;20172;-59
2023/12/17 03:53:54;;;;;;;9.40;8.60;;;11.80;99.90;;;;;;5092522;28;20199;-58
2023/12/17 03:56:22;;;;;;;8.90;8.17;;;11.80;99.90;;;;;;5086327;28;20704;-58
2023/12/17 03:58:48;;;;;;;10.30;9.40;;;11.70;99.90;;;;;;5076410;28;20175;-58
2023/12/17 04:01:14;;;;;;;9.60;8.53;;;11.70;99.90;;;;;;5092029;28;20397;-58
2023/12/17 04:03:39;;;;;;;10.10;9.20;;;11.70;99.90;;;;;;5078780;28;20183;-58
2023/12/17 04:06:07;;;;;;;9.50;8.50;;;11.60;99.90;;;;;;5077984;28;20176;-58
2023/12/17 04:08:33;;;;;;;9.73;8.83;;;11.60;99.90;;;;;;5090631;28;20180;-58
2023/12/17 04:10:59;;;;;;;10.20;9.30;;;11.60;99.90;;;;;;5091355;28;20410;-58
2023/12/17 04:13:25;;;;;;;9.90;9.00;;;11.70;99.90;;;;;;5089926;28;20460;-59
2023/12/17 04:15:51;;;;;;;9.70;8.80;;;11.70;99.90;;;;;;5097204;28;20963;-58
2023/12/17 04:18:16;;;;;;;10.60;9.60;;;11.70;99.90;;;;;;5091473;28;20429;-58
2023/12/17 04:20:42;;;;;;;10.17;9.27;;;11.70;99.90;;;;;;5090403;28;20234;-58
2023/12/17 04:23:08;;;;;;;10.20;9.20;;;11.60;99.90;;;;;;5090934;28;20172;-58
2023/12/17 04:25:34;;;;;;;11.17;8.87;;;11.60;99.90;;;;;;5091090;28;20236;-58
2023/12/17 04:28:00;;;;;;;12.70;9.60;;;11.60;99.90;;;;;;5092092;28;20171;-58
2023/12/17 04:30:25;;;;;;;10.30;9.30;;;11.50;99.90;;;;;;5090758;28;20177;-59
2023/12/17 04:32:51;;;;;;;9.80;8.80;;;11.60;99.90;;;;;;5104443;28;20183;-58
2023/12/17 04:35:17;;;;;;;9.30;8.40;;;11.60;99.90;;;;;;5107665;28;20574;-58
2023/12/17 04:37:43;;;;;;;10.53;9.53;;;11.50;99.90;;;;;;5091359;28;20192;-58
2023/12/17 04:40:10;;;;;;;10.17;9.17;;;11.40;99.90;;;;;;5095426;28;20179;-58
2023/12/17 04:42:35;;;;;;;9.37;8.57;;;11.40;99.90;;;;;;5094025;28;20797;-58
2023/12/17 04:45:03;;;;;;;8.90;8.10;;;11.40;99.90;;;;;;5094898;28;20465;-58
2023/12/17 04:47:28;;;;;;;9.87;8.97;;;11.40;99.90;;;;;;5093632;28;20189;-60
2023/12/17 04:49:54;;;;;;;9.60;8.70;;;11.50;99.90;;;;;;5075835;28;20498;-58
2023/12/17 04:52:20;;;;;;;8.77;7.97;;;11.40;99.90;;;;;;5075707;28;20221;-58
2023/12/17 04:54:45;;;;;;;10.60;9.17;;;11.40;99.90;;;;;;5074596;28;20173;-58
2023/12/17 04:57:11;;;;;;;10.03;8.23;;;11.30;99.90;;;;;;5086351;28;20512;-58
2023/12/17 04:59:37;;;;;;;8.73;7.83;;;11.30;99.90;;;;;;5084062;28;20181;-58
2023/12/17 05:02:03;;;;;;;9.70;8.80;;;11.20;99.90;;;;;;5086635;28;20556;-58
2023/12/17 05:04:28;;;;;;;8.53;7.83;;;11.20;99.90;;;;;;5113163;28;20208;-60
2023/12/17 05:06:54;;;;;;;8.47;7.67;;;11.20;99.90;;;;;;5116034;28;20179;-58
2023/12/17 05:09:20;;;;;;;8.70;8.00;;;11.20;99.90;;;;;;5116130;28;20660;-58
2023/12/17 05:11:46;;;;;;;9.80;8.70;;;11.30;99.90;;;;;;5094278;28;20177;-59
2023/12/17 05:14:12;;;;;;;9.40;8.60;;;11.20;99.90;;;;;;5090382;28;20972;-58
2023/12/17 05:16:38;;;;;;;8.47;7.77;;;11.20;99.90;;;;;;5094806;28;20596;-58
2023/12/17 05:19:04;;;;;;;9.30;8.50;;;11.20;99.90;;;;;;5075350;28;20180;-58
2023/12/17 05:21:30;;;;;;;8.60;7.80;;;11.20;99.90;;;;;;5090376;28;20403;-60
2023/12/17 05:23:55;;;;;;;8.80;8.10;;;11.10;99.90;;;;;;5075568;28;20173;-58
2023/12/17 05:26:22;;;;;;;8.63;7.90;;;11.20;99.90;;;;;;5074728;28;20549;-58
2023/12/17 05:28:47;;;;;;;8.57;7.87;;;11.20;99.90;;;;;;5085312;28;20171;-58
2023/12/17 05:31:13;;;;;;;8.87;8.17;;;11.20;99.90;;;;;;5095865;28;20429;-58
2023/12/17 05:33:39;;;;;;;8.27;7.60;;;11.10;99.90;;;;;;5094376;28;20195;-58
2023/12/17 05:36:05;;;;;;;8.07;7.37;;;11.10;99.90;;;;;;5088497;28;20201;-58
2023/12/17 05:38:31;;;;;;;9.87;8.97;;;11.10;99.90;;;;;;5074142;28;20209;-60
2023/12/17 05:40:57;;;;;;;8.73;7.80;;;11.20;99.90;;;;;;5074545;28;20439;-58
2023/12/17 05:43:24;;;;;;;7.83;7.23;;;11.10;99.90;;;;;;5086035;28;20186;-58
2023/12/17 05:45:49;;;;;;;8.60;7.90;;;11.10;99.90;;;;;;5086192;28;20973;-58
2023/12/17 05:48:15;;;;;;;8.07;7.30;;;11.10;99.90;;;;;;5089315;28;20424;-58
2023/12/17 05:50:42;;;;;;;9.50;8.60;;;11.00;99.90;;;;;;5092276;28;20255;-58
2023/12/17 05:53:08;;;;;;;8.47;7.77;;;11.00;99.90;;;;;;5094637;28;20420;-58
2023/12/17 05:55:33;;;;;;;9.70;8.70;;;10.90;99.90;;;;;;5094065;28;20406;-59
2023/12/17 05:57:59;;;;;;;10.40;9.00;;;10.90;99.90;;;;;;5093790;28;20277;-58
2023/12/17 06:00:25;;;;;;;9.17;8.37;;;11.00;99.90;;;;;;5094913;28;20276;-58
2023/12/17 06:02:51;;;;;;;7.60;6.90;;;11.00;99.90;;;;;;5104134;28;20517;-58
2023/12/17 06:05:17;;;;;;;7.83;7.10;;;11.10;99.90;;;;;;5076524;28;20221;-58
2023/12/17 06:07:42;;;;;;;7.70;7.00;;;10.90;99.90;;;;;;5073557;28;20255;-58
2023/12/17 06:10:09;;;;;;;8.50;7.70;;;11.00;99.90;;;;;;5089861;28;20824;-58
2023/12/17 06:12:34;;;;;;;8.00;7.30;;;11.00;99.90;;;;;;5093837;28;20411;-59
2023/12/17 06:15:00;;;;;;;8.10;7.40;;;11.10;99.90;;;;;;5094115;28;20824;-58
2023/12/17 06:17:26;;;;;;;8.37;7.67;;;11.10;99.90;;;;;;5092860;28;20237;-58
2023/12/17 06:19:52;;;;;;;8.00;7.40;;;11.10;99.90;;;;;;5092591;28;20221;-58
2023/12/17 06:22:18;;;;;;;8.50;7.80;;;11.10;99.90;;;;;;5092565;28;20187;-57
2023/12/17 06:24:43;;;;;;;8.73;8.03;;;11.10;99.90;;;;;;5092113;28;20445;-58
2023/12/17 06:27:17;;;;;;;7.73;7.13;;;11.00;99.90;;;;;;5093052;28;20532;-58
2023/12/17 06:29:43;;;;;;;8.27;7.63;;;11.00;99.90;;;;;;5091886;28;20218;-58
2023/12/17 06:32:09;;;;;;;9.13;8.37;;;11.00;99.90;;;;;;5085632;28;20429;-58
2023/12/17 06:34:35;;;;;;;9.23;8.33;;;11.00;99.90;;;;;;5093454;28;20179;-59
2023/12/17 06:37:01;;;;;;;8.93;8.13;;;11.00;99.90;;;;;;5078803;28;20422;-57
2023/12/17 06:39:27;;;;;;;11.07;9.97;;;11.00;99.90;;;;;;5073710;28;20195;-57
2023/12/17 06:41:53;;;;;;;8.67;7.87;;;11.00;99.90;;;;;;5078092;28;20180;-60
2023/12/17 06:44:19;;;;;;;7.57;6.87;;;11.00;99.90;;;;;;5085677;28;20454;-57
2023/12/17 06:46:44;;;;;;;8.00;7.30;;;10.90;99.90;;;;;;5092977;28;20207;-58
2023/12/17 06:49:10;;;;;;;8.10;7.50;;;10.90;99.90;;;;;;5093764;28;20410;-57
2023/12/17 06:51:39;;;;;;;7.97;7.27;;;11.00;99.90;;;;;;5093038;28;20168;-59
2023/12/17 06:54:09;;;;;;;8.37;7.57;;;11.00;99.90;;;;;;5085376;28;20287;-57
2023/12/17 06:56:35;;;;;;;8.40;7.60;;;11.00;99.90;;;;;;5079564;28;21032;-59
2023/12/17 06:59:01;;;;;;;7.50;6.90;;;11.00;99.90;;;;;;5088490;28;20426;-59
2023/12/17 07:01:27;;;;;;;7.77;7.07;;;11.00;99.90;;;;;;5090704;28;20440;-57
2023/12/17 07:03:53;;;;;;;6.50;5.97;;;11.00;99.90;;;;;;5112644;28;20410;-58
2023/12/17 07:06:19;;;;;;;7.23;6.63;;;11.00;99.90;;;;;;5113752;28;20688;-59
2023/12/17 07:08:44;;;;;;;6.90;6.40;;;11.00;99.90;;;;;;5107244;28;20176;-60
2023/12/17 07:11:11;;;;;;;7.33;6.73;;;11.10;99.90;;;;;;5094211;28;20639;-59
2023/12/17 07:13:37;;;;;;;6.53;6.03;;;10.90;99.90;;;;;;5113307;28;20171;-60
2023/12/17 07:16:03;;;;;;;7.17;6.57;;;10.90;99.90;;;;;;5113493;28;20537;-59
2023/12/17 07:18:29;;;;;;;7.60;6.90;;;11.00;99.90;;;;;;5109345;28;20418;-59
2023/12/17 07:20:55;;;;;;;7.10;6.50;;;11.00;99.90;;;;;;5092243;28;20420;-59
2023/12/17 07:23:24;;;;;;;7.00;6.43;;;11.00;99.90;;;;;;5078634;28;20651;-58
2023/12/17 07:25:50;;;;;;;7.60;6.93;;;11.10;99.90;;;;;;5070698;28;20285;-59
2023/12/17 07:28:15;;;;;;;7.60;6.93;;;11.10;99.90;;;;;;5088480;28;20517;-59
2023/12/17 07:30:41;;;;;;;8.57;7.77;;;11.10;99.90;;;;;;5099240;28;20422;-60
2023/12/17 07:33:08;;;;;;;8.67;7.90;;;11.10;99.90;;;;;;5091979;28;20276;-59
2023/12/17 07:35:34;;;;;;;8.30;7.60;;;11.10;99.90;;;;;;5092121;28;20517;-59
2023/12/17 07:38:00;;;;;;;7.70;7.07;;;11.20;99.90;;;;;;5090238;28;20475;-59
2023/12/17 07:40:26;;;;;;;8.23;7.63;;;11.20;99.90;;;;;;5090817;28;20457;-59
2023/12/17 07:42:52;;;;;;;10.47;9.60;;;11.20;99.90;;;;;;5090656;28;20411;-59
2023/12/17 07:45:18;;;;;;;9.00;8.20;;;11.30;99.90;;;;;;5091208;28;20512;-59
2023/12/17 07:47:44;;;;;;;9.07;8.20;;;11.30;99.90;;;;;;5091360;28;20173;-60
2023/12/17 07:50:10;;;;;;;8.07;7.30;;;11.30;99.90;;;;;;5092147;28;20201;-59
2023/12/17 07:52:36;;;;;;;7.63;7.03;;;11.20;99.90;;;;;;5092232;28;20411;-59
2023/12/17 07:55:02;;;;;;;6.83;6.27;;;11.30;99.90;;;;;;5090108;28;20915;-59
2023/12/17 07:57:28;;;;;;;7.80;7.20;;;11.20;99.90;;;;;;5091852;28;20184;-59
2023/12/17 07:59:54;;;;;;;9.10;8.30;;;11.20;99.90;;;;;;5086314;28;20429;-59
2023/12/17 08:02:20;;;;;;;7.63;6.93;;;11.20;99.90;;;;;;5092468;28;20200;-59
2023/12/17 08:04:46;;;;;;;8.90;8.10;;;11.20;99.90;;;;;;5088112;28;20934;-59
2023/12/17 08:07:12;;;;;;;7.20;6.60;;;11.20;99.90;;;;;;5089772;28;20187;-60
2023/12/17 08:09:38;;;;;;;7.50;6.90;;;11.20;99.90;;;;;;5091187;28;20399;-59
2023/12/17 08:12:05;;;;;;;7.63;7.00;;;11.20;99.90;;;;;;5112157;28;20270;-58
2023/12/17 08:14:31;;;;;;;7.30;6.70;;;11.10;99.90;;;;;;5097484;28;20222;-58
2023/12/17 08:16:58;;;;;;;7.80;7.10;;;11.20;99.90;;;;;;5086237;28;20495;-59
2023/12/17 08:19:24;;;;;;;11.80;10.60;;;11.20;99.90;;;;;;5090067;28;20177;-59
2023/12/17 08:21:50;;;;;;;12.07;10.80;;;11.20;99.90;;;;;;5084021;28;20421;-59
2023/12/17 08:24:15;;;;;;;8.80;8.00;;;11.20;99.90;;;;;;5091861;28;20204;-58
2023/12/17 08:26:41;;;;;;;7.20;6.60;;;11.20;99.90;;;;;;5086047;28;20259;-60
2023/12/17 08:29:07;;;;;;;8.87;7.13;;;11.20;99.90;;;;;;5071991;28;20176;-59
2023/12/17 08:31:33;;;;;;;7.00;6.40;;;11.20;99.90;;;;;;5074626;28;20184;-58
2023/12/17 08:33:59;;;;;;;6.93;6.40;;;11.30;99.90;;;;;;5089136;28;20323;-58
2023/12/17 08:36:27;;;;;;;7.57;6.97;;;11.10;99.90;;;;;;5076044;28;20415;-58
2023/12/17 08:38:54;;;;;;;7.70;7.00;;;11.10;99.90;;;;;;5093473;28;20544;-59
2023/12/17 08:41:20;;;;;;;8.70;7.90;;;11.10;99.90;;;;;;5081271;28;20520;-58
2023/12/17 08:43:45;;;;;;;9.37;8.53;;;11.10;99.90;;;;;;5087336;28;20511;-59
2023/12/17 08:46:11;;;;;;;8.77;7.97;;;11.10;99.90;;;;;;5080405;28;20243;-59
2023/12/17 08:48:37;;;;;;;17.03;11.47;;;11.00;99.90;;;;;;5088493;28;20199;-59
2023/12/17 08:51:04;;;;;;;7.20;6.60;;;11.00;99.90;;;;;;5081242;28;20934;-59
2023/12/17 08:53:30;;;;;;;8.17;7.47;;;11.00;99.90;;;;;;5085555;28;20249;-58
2023/12/17 08:55:56;;;;;;;8.87;8.17;;;11.10;99.90;;;;;;5072939;28;20920;-59
2023/12/17 08:58:22;;;;;;;8.60;8.00;;;11.10;99.90;;;;;;5071950;28;20416;-58
2023/12/17 09:00:47;;;;;;;8.50;7.73;;;11.20;99.90;;;;;;5071461;28;20185;-59
2023/12/17 09:03:13;;;;;;;9.77;8.87;;;11.20;99.90;;;;;;5084630;28;20177;-58
2023/12/17 09:05:39;;;;;;;9.30;8.40;;;11.20;99.90;;;;;;5078265;28;20208;-58
2023/12/17 09:08:05;;;;;;;9.40;8.23;;;11.10;99.90;;;;;;5086479;28;20320;-58
2023/12/17 09:10:31;;;;;;;9.03;8.23;;;11.10;99.90;;;;;;5087094;28;20177;-59
2023/12/17 09:12:57;;;;;;;11.90;10.57;;;11.10;99.90;;;;;;5088428;28;20426;-58
2023/12/17 09:15:23;;;;;;;10.40;9.40;;;11.20;99.90;;;;;;5087047;28;20462;-58
2023/12/17 09:17:50;;;;;;;11.63;10.53;;;11.20;99.90;;;;;;5082553;28;20187;-59
2023/12/17 09:20:16;;;;;;;11.60;10.60;;;11.40;99.90;;;;;;5090763;28;20417;-59
2023/12/17 09:22:42;;;;;;;11.27;10.27;;;11.80;99.90;;;;;;5089041;28;20423;-59
2023/12/17 09:25:08;;;;;;;11.30;10.30;;;12.30;99.90;;;;;;5083132;28;20470;-59
2023/12/17 09:27:34;;;;;;;9.67;8.77;;;12.60;99.90;;;;;;5094516;28;20433;-60
2023/12/17 09:30:00;;;;;;;9.30;8.50;;;13.00;99.90;;;;;;5090704;28;20415;-58
2023/12/17 09:32:26;;;;;;;10.60;9.60;;;13.10;99.90;;;;;;5101286;28;20221;-58
2023/12/17 09:34:52;;;;;;;9.90;8.90;;;13.40;99.90;;;;;;5092874;28;20190;-58
2023/12/17 09:37:18;;;;;;;12.53;11.23;;;13.60;99.90;;;;;;5093336;28;20496;-59
2023/12/17 09:39:43;;;;;;;15.30;13.73;;;13.80;99.90;;;;;;5078098;28;20512;-61
2023/12/17 09:42:11;;;;;;;10.73;9.73;;;14.00;99.90;;;;;;5072765;28;20505;-61
2023/12/17 09:44:37;;;;;;;9.70;8.80;;;14.20;99.90;;;;;;5073495;28;20205;-60
2023/12/17 09:47:03;;;;;;;10.20;9.20;;;14.30;99.90;;;;;;5089997;28;20432;-58
2023/12/17 09:49:29;;;;;;;9.93;9.00;;;14.40;99.90;;;;;;5089517;28;20760;-58
2023/12/17 09:52:04;;;;;;;9.93;9.03;;;14.30;99.90;;;;;;5086982;28;20475;-58
2023/12/17 09:54:30;;;;;;;10.87;9.77;;;14.50;99.90;;;;;;5083584;28;20197;-58
2023/12/17 09:56:58;;;;;;;11.37;10.27;;;14.60;99.90;;;;;;5087210;28;20425;-58
2023/12/17 09:59:24;;;;;;;10.23;9.20;;;14.70;99.90;;;;;;5091976;28;20189;-57
2023/12/17 10:01:51;;;;;;;9.77;8.87;;;14.60;99.90;;;;;;5081980;28;20423;-59
2023/12/17 10:04:26;;;;;;;10.37;9.47;;;14.30;99.90;;;;;;5092842;28;20243;-57
2023/12/17 10:06:53;;;;;;;10.93;9.83;;;14.10;99.90;;;;;;5090642;28;20435;-58
2023/12/17 10:09:18;;;;;;;11.33;10.13;;;13.80;99.90;;;;;;5091395;28;20426;-59
2023/12/17 10:11:44;;;;;;;11.40;10.30;;;13.70;99.90;;;;;;5088907;28;20554;-60
2023/12/17 10:14:21;;;;;;;11.23;10.13;;;13.50;99.90;;;;;;5085328;28;20292;-57
2023/12/17 10:16:50;;;;;;;9.67;8.73;;;13.20;99.90;;;;;;5087779;28;20446;-60
2023/12/17 10:19:17;;;;;;;9.90;9.00;;;13.00;99.90;;;;;;5084155;28;20962;-56
2023/12/17 10:21:43;;;;;;;10.10;9.00;;;12.80;99.90;;;;;;5088243;28;20421;-56
2023/12/17 10:24:09;;;;;;;9.37;8.40;;;12.60;99.90;;;;;;5084698;28;22271;-56
2023/12/17 10:26:44;;;;;;;12.93;11.20;;;12.50;99.90;;;;;;5090608;28;20436;-58
2023/12/17 10:29:14;;;;;;;16.07;12.10;;;12.40;99.90;;;;;;5084908;28;20419;-57
2023/12/17 10:31:41;;;;;;;8.70;7.90;;;12.20;99.90;;;;;;5093733;28;20511;-57
2023/12/17 10:34:18;;;;;;;8.13;7.33;;;12.20;99.90;;;;;;5085070;28;20417;-57
2023/12/17 10:36:47;;;;;;;7.33;6.63;;;11.80;99.90;;;;;;5091443;28;20438;-57
2023/12/17 10:39:14;;;;;;;10.50;7.83;;;11.60;99.90;;;;;;5092347;28;20957;-55
2023/12/17 10:41:42;;;;;;;8.67;7.90;;;11.60;99.90;;;;;;5116580;27;20420;-57
2023/12/17 10:44:14;;;;;;;7.50;6.30;;;11.70;99.90;;;;;;5092005;28;20571;-56
2023/12/17 10:46:44;;;;;;;7.40;6.80;;;11.70;99.90;;;;;;5082475;28;20422;-55
2023/12/17 10:49:11;;;;;;;9.80;8.90;;;11.70;99.90;;;;;;5091029;28;20415;-55
2023/12/17 10:51:43;;;;;;;7.73;6.97;;;11.70;99.90;;;;;;5093363;28;20459;-56
2023/12/17 10:54:11;;;;;;;7.23;6.63;;;11.60;99.90;;;;;;5093162;28;20427;-58
2023/12/17 10:56:47;;;;;;;5.90;5.50;;;11.60;99.90;;;;;;5091952;28;20451;-58
2023/12/17 10:59:17;;;;;;;49.17;36.47;;;11.60;99.90;;;;;;5082806;28;20451;-57
2023/12/17 11:01:46;;;;;;;518.63;311.07;;;11.50;99.90;;;;;;5093635;28;20463;-57
2023/12/17 11:04:12;;;;;;;31.17;21.50;;;11.50;99.90;;;;;;5090471;28;20430;-56
2023/12/17 11:06:39;;;;;;;6.87;6.30;;;11.60;99.90;;;;;;5096288;28;20422;-60
2023/12/17 11:09:05;;;;;;;6.50;5.90;;;11.60;99.90;;;;;;5102691;28;20421;-57
2023/12/17 11:11:32;;;;;;;7.80;7.20;;;11.60;99.90;;;;;;5096255;28;20517;-55
2023/12/17 11:13:58;;;;;;;6.43;5.90;;;11.50;99.90;;;;;;5071351;28;21731;-57
2023/12/17 11:16:25;;;;;;;6.17;5.70;;;11.50;99.90;;;;;;5067528;28;20446;-57
2023/12/17 11:18:52;;;;;;;6.97;6.37;;;11.50;99.90;;;;;;5089936;28;20422;-60
2023/12/17 11:21:19;;;;;;;7.07;6.47;;;11.50;99.90;;;;;;5087359;28;20424;-56
2023/12/17 11:23:54;;;;;;;6.60;6.00;;;11.60;99.90;;;;;;5086681;28;20425;-54
2023/12/17 11:26:20;;;;;;;6.17;5.67;;;11.60;99.90;;;;;;5076472;28;20423;-54
2023/12/17 11:28:46;;;;;;;5.80;5.40;;;11.80;99.90;;;;;;5090869;28;20977;-54
2023/12/17 11:31:12;;;;;;;5.50;5.10;;;12.00;99.90;;;;;;5091947;28;20552;-56
2023/12/17 11:33:39;;;;;;;5.80;5.40;;;12.20;99.90;;;;;;5091477;28;20471;-56
2023/12/17 11:36:10;;;;;;;6.43;5.90;;;12.60;99.90;;;;;;5087287;28;20434;-55
2023/12/17 11:38:36;;;;;;;5.57;5.17;;;12.90;99.90;;;;;;5104792;28;20414;-54
2023/12/17 11:41:05;;;;;;;5.60;5.20;;;13.10;99.90;;;;;;5090043;28;20419;-58
2023/12/17 11:43:31;;;;;;;4.77;4.37;;;13.30;99.90;;;;;;5072406;28;20426;-58
2023/12/17 11:45:58;;;;;;;5.00;4.60;;;13.50;99.90;;;;;;5066558;28;20516;-59
2023/12/17 11:48:26;;;;;;;5.40;5.00;;;13.60;99.90;;;;;;5090773;28;20507;-58
2023/12/17 11:50:56;;;;;;;6.50;5.90;;;13.70;99.90;;;;;;5100437;28;20422;-61
2023/12/17 11:53:24;;;;;;;6.00;5.50;;;13.70;99.90;;;;;;5081785;28;20402;-57
2023/12/17 11:55:56;;;;;;;6.23;5.83;;;13.70;99.90;;;;;;5081641;28;20501;-62
2023/12/17 11:58:22;;;;;;;5.67;5.27;;;13.50;99.90;;;;;;5087107;28;20407;-59
2023/12/17 12:01:00;;;;;;;5.37;4.97;;;13.40;99.90;;;;;;5088542;28;20512;-59
2023/12/17 12:03:27;;;;;;;6.70;6.20;;;13.30;99.90;;;;;;5087374;28;20427;-59
2023/12/17 12:05:59;;;;;;;6.93;6.33;;;13.30;99.90;;;;;;5081387;28;20543;-62
2023/12/17 12:08:26;;;;;;;693.53;461.13;;;13.20;99.90;;;;;;5102740;28;20415;-60
2023/12/17 12:10:52;;;;;;;510.07;349.10;;;13.20;99.90;;;;;;5089241;28;20425;-62
2023/12/17 12:13:18;;;;;;;53.20;38.50;;;13.30;99.90;;;;;;5071247;28;20771;-60
2023/12/17 12:15:44;;;;;;;8.10;7.43;;;13.40;99.90;;;;;;5091411;28;20465;-58
2023/12/17 12:18:20;;;;;;;6.33;5.80;;;13.40;99.90;;;;;;5071824;28;20430;-58
2023/12/17 12:20:46;;;;;;;6.63;6.13;;;13.40;99.90;;;;;;5089867;28;20909;-58
2023/12/17 12:23:12;;;;;;;6.70;6.07;;;13.40;99.90;;;;;;5090168;28;20414;-59
2023/12/17 12:25:38;;;;;;;7.50;6.90;;;13.40;99.90;;;;;;5089283;28;20203;-58
2023/12/17 12:28:16;;;;;;;7.00;6.40;;;13.40;99.90;;;;;;5087441;28;20462;-59
2023/12/17 12:30:44;;;;;;;9.53;8.57;;;13.50;99.90;;;;;;5080354;28;20408;-58
2023/12/17 12:33:13;;;;;;;7.30;6.70;;;13.50;99.90;;;;;;5086320;28;20426;-57
2023/12/17 12:35:40;;;;;;;6.67;6.17;;;13.50;99.90;;;;;;5090254;28;20434;-53
2023/12/17 12:38:22;;;;;;;6.90;6.30;;;13.50;99.90;;;;;;5090808;28;20419;-55